Impacts METAR Board
IDs:

KRYW - Lago Vista/Allen Arp, TX, US

Updated at: 1200 UTC 20 Oct 2021
Potential Impact None Slight Moderate High
Time 20/00Z 20/01Z 20/02Z 20/03Z 20/04Z 20/05Z 20/06Z 20/07Z 20/08Z 20/09Z 20/10Z 20/11Z 20/12Z
Temp74 71 71 70 69 68 67 65 65 66 66 66 67
Dewpt58 58 59 60 60 61 62 61 62 63 63 64 64
Altim30.01 30.01 30.03 30.04 30.07 30.07 30.08 30.08 30.08 30.09 30.09 30.09 30.10
VIS10 10 10 10 10 10 10 10 10 10 10 7 5
CIG-- -- -- -- -- -- -- -- 7 5 3 3 3
CoverCLRCLRCLRCLRCLRCLRCLRCLROVCOVCOVCOVCOVC
FltCatVFRVFRVFRVFRVFRVFRVFRVFRIFRIFRLIFRLIFRLIFR
WX------------------------BR
WDir150140150160170170160170170170160140160
WSpd4 3 6 7 6 7 8 5 3 6 7 7 4
WGst-- -- -- -- -- 15 -- -- -- -- -- -- --
Raw hourly METARs
KRYW 192355Z AUTO 15004KT 10SM CLR 23/15 A3001 RMK AO2 T02330145 10279 20233
KRYW 200055Z AUTO 14003KT 10SM CLR 22/15 A3001 RMK AO2 T02180145
KRYW 200155Z AUTO 15006KT 10SM CLR 22/15 A3003 RMK AO2 T02160148
KRYW 200255Z AUTO 16007KT 10SM CLR 21/15 A3004 RMK AO2 T02110154
KRYW 200355Z AUTO 17006KT 10SM CLR 20/16 A3007 RMK AO2 T02030158
KRYW 200455Z AUTO 17007G15KT 10SM CLR 20/16 A3007 RMK AO2 T01980162
KRYW 200555Z AUTO 16008KT 130V200 10SM CLR 19/16 A3008 RMK AO2 T01920164 10233 20192 402790131
KRYW 200655Z AUTO 17005KT 10SM CLR 19/16 A3008 RMK AO2 T01850160
KRYW 200755Z AUTO 17003KT 10SM OVC007 18/17 A3008 RMK AO2 T01830165
KRYW 200855Z AUTO 17006KT 10SM OVC005 19/17 A3009 RMK AO2 T01900172
KRYW 200955Z AUTO 16007KT 10SM OVC003 19/17 A3009 RMK AO2 T01900173
KRYW 201055Z AUTO 14007KT 7SM OVC003 19/18 A3009 RMK AO2 T01900175
KRYW 201155Z AUTO 16004KT 5SM BR OVC003 19/18 A3010 RMK AO2 T01920180 10192 20182